Time;durP1;ratioP1;P1;durP2;ratioP2;P2;SDS_P1;SDS_P2;PMS_P1;PMS_P2;Temp;Humidity;BMP_temperature;BMP_pressure;BME280_temperature;BME280_humidity;BME280_pressure;Samples;Min_cycle;Max_cycle;Signal;HPM_P1;HPM_P2
2023/12/15 00:00:18;;;;;;;0.00;0.00;;;21.30;49.80;;;;;;5091618;28;20193;-45
2023/12/15 00:02:49;;;;;;;0.00;0.00;;;21.30;49.90;;;;;;5071191;28;20682;-48
2023/12/15 00:05:19;;;;;;;0.10;0.10;;;21.30;49.90;;;;;;5071102;28;20199;-49
2023/12/15 00:07:52;;;;;;;0.05;0.05;;;21.30;49.90;;;;;;5071160;28;20199;-45
2023/12/15 00:10:23;;;;;;;0.10;0.10;;;21.40;49.90;;;;;;5071100;28;20229;-46
2023/12/15 00:12:54;;;;;;;0.00;0.00;;;21.40;49.80;;;;;;5070986;28;20218;-46
2023/12/15 00:15:25;;;;;;;0.00;0.00;;;21.40;49.90;;;;;;5071102;28;20199;-46
2023/12/15 00:17:55;;;;;;;0.00;0.00;;;21.40;49.80;;;;;;5071142;28;20195;-47
2023/12/15 00:20:26;;;;;;;0.00;0.00;;;21.40;50.00;;;;;;5067121;28;20190;-44
2023/12/15 00:22:58;;;;;;;0.00;0.00;;;21.40;50.10;;;;;;5070264;28;20215;-46
2023/12/15 00:25:29;;;;;;;0.10;0.10;;;21.50;50.10;;;;;;5071287;28;20183;-45
2023/12/15 00:28:00;;;;;;;0.00;0.00;;;21.50;50.00;;;;;;5070019;28;20202;-47
2023/12/15 00:30:31;;;;;;;0.00;0.00;;;21.50;50.00;;;;;;5070288;28;20219;-46
2023/12/15 00:33:02;;;;;;;0.00;0.00;;;21.50;50.00;;;;;;5070236;28;20667;-47
2023/12/15 00:35:32;;;;;;;0.00;0.00;;;21.50;50.00;;;;;;5070943;28;20198;-49
2023/12/15 00:38:05;;;;;;;0.00;0.00;;;21.60;50.00;;;;;;5071383;28;20194;-46
2023/12/15 00:40:36;;;;;;;0.00;0.00;;;21.60;49.90;;;;;;5074023;28;20441;-49
2023/12/15 00:43:06;;;;;;;0.00;0.00;;;21.60;49.90;;;;;;5074525;28;20246;-48
2023/12/15 00:45:37;;;;;;;0.00;0.00;;;21.70;50.00;;;;;;5073621;28;20242;-49
2023/12/15 00:48:08;;;;;;;0.10;0.10;;;21.70;49.90;;;;;;5074664;28;20377;-45
2023/12/15 00:50:39;;;;;;;0.00;0.00;;;21.70;49.90;;;;;;5074126;28;20222;-45
2023/12/15 00:53:11;;;;;;;0.00;0.00;;;21.70;49.90;;;;;;5074852;28;20218;-45
2023/12/15 00:55:42;;;;;;;0.00;0.00;;;21.70;49.80;;;;;;5073721;28;20213;-46
2023/12/15 00:58:13;;;;;;;0.10;0.10;;;21.70;49.80;;;;;;5073763;28;20194;-48
2023/12/15 01:00:44;;;;;;;0.10;0.10;;;21.80;49.90;;;;;;5087380;28;20190;-45
2023/12/15 01:03:14;;;;;;;0.00;0.00;;;21.80;49.80;;;;;;5075329;28;20218;-46
2023/12/15 01:05:45;;;;;;;0.00;0.00;;;21.80;49.90;;;;;;5073994;28;20186;-46
2023/12/15 01:08:18;;;;;;;0.00;0.00;;;21.80;49.90;;;;;;5073487;28;20198;-45
2023/12/15 01:10:49;;;;;;;0.00;0.00;;;21.80;49.90;;;;;;5073631;28;20219;-47
2023/12/15 01:13:19;;;;;;;0.00;0.00;;;21.80;49.90;;;;;;5073464;28;20237;-45
2023/12/15 01:15:50;;;;;;;0.10;0.10;;;21.80;49.90;;;;;;5073598;28;20218;-50
2023/12/15 01:18:21;;;;;;;0.00;0.00;;;21.80;49.90;;;;;;5073227;28;20201;-47
2023/12/15 01:20:51;;;;;;;0.00;0.00;;;21.80;50.00;;;;;;5074416;28;20195;-48
2023/12/15 01:23:24;;;;;;;0.00;0.00;;;21.80;50.10;;;;;;5072941;28;20210;-45
2023/12/15 01:25:55;;;;;;;0.00;0.00;;;21.80;50.10;;;;;;5073179;28;20199;-46
2023/12/15 01:28:26;;;;;;;0.00;0.00;;;21.90;50.20;;;;;;5073331;28;20191;-46
2023/12/15 01:31:01;;;;;;;0.10;0.10;;;21.90;50.20;;;;;;5073229;28;20302;-47
2023/12/15 01:33:32;;;;;;;0.00;0.00;;;21.90;50.20;;;;;;5073725;28;20218;-51
2023/12/15 01:36:02;;;;;;;0.00;0.00;;;21.90;50.20;;;;;;5072772;28;20198;-46
2023/12/15 01:38:35;;;;;;;0.00;0.00;;;21.90;50.80;;;;;;5073638;28;20205;-45
2023/12/15 01:41:06;;;;;;;0.00;0.00;;;21.90;50.20;;;;;;5073364;28;20198;-48
2023/12/15 01:43:37;;;;;;;0.00;0.00;;;22.00;50.30;;;;;;5073516;28;20222;-47
2023/12/15 01:46:08;;;;;;;0.00;0.00;;;22.00;50.30;;;;;;5072967;28;20187;-49
2023/12/15 01:48:39;;;;;;;0.00;0.00;;;22.00;50.30;;;;;;5073920;28;20199;-50
2023/12/15 01:51:10;;;;;;;0.00;0.00;;;22.00;50.30;;;;;;5086906;22;20226;-53
2023/12/15 01:53:43;;;;;;;0.03;0.03;;;22.00;50.30;;;;;;5073399;28;20222;-53
2023/12/15 01:56:14;;;;;;;0.10;0.10;;;22.00;50.30;;;;;;5072671;28;20202;-49
2023/12/15 01:58:45;;;;;;;0.00;0.00;;;22.00;50.30;;;;;;5072885;28;20647;-50
2023/12/15 02:01:15;;;;;;;0.00;0.00;;;22.00;50.30;;;;;;5072925;28;20198;-50
2023/12/15 02:03:46;;;;;;;0.00;0.00;;;22.00;50.40;;;;;;5071724;28;20219;-53
2023/12/15 02:06:17;;;;;;;0.03;0.03;;;22.10;50.40;;;;;;5073395;28;20195;-54
2023/12/15 02:08:49;;;;;;;0.00;0.00;;;22.10;50.40;;;;;;5072139;28;20202;-46
2023/12/15 02:11:20;;;;;;;0.00;0.00;;;22.10;50.40;;;;;;5072389;28;20210;-49
2023/12/15 02:13:51;;;;;;;0.00;0.00;;;22.10;50.40;;;;;;5072314;28;20211;-52
2023/12/15 02:16:21;;;;;;;0.00;0.00;;;22.10;50.40;;;;;;5072584;28;20191;-54
2023/12/15 02:18:52;;;;;;;0.00;0.00;;;22.10;50.30;;;;;;5073106;28;20229;-46
2023/12/15 02:21:23;;;;;;;0.00;0.00;;;22.10;50.40;;;;;;5072873;28;20197;-46
2023/12/15 02:23:55;;;;;;;0.10;0.10;;;22.20;50.30;;;;;;5072794;28;20219;-50
2023/12/15 02:26:26;;;;;;;0.10;0.10;;;22.20;50.30;;;;;;5072255;28;20191;-50
2023/12/15 02:28:57;;;;;;;0.00;0.00;;;22.20;50.30;;;;;;5072244;28;20202;-49
2023/12/15 02:31:28;;;;;;;0.00;0.00;;;22.20;50.40;;;;;;5071928;28;20194;-57
2023/12/15 02:33:59;;;;;;;0.00;0.00;;;22.30;50.50;;;;;;5072199;28;20238;-52
2023/12/15 02:36:30;;;;;;;0.00;0.00;;;22.30;50.40;;;;;;5069516;28;20191;-52
2023/12/15 02:39:03;;;;;;;0.00;0.00;;;22.30;51.00;;;;;;5072538;28;20197;-51
2023/12/15 02:41:34;;;;;;;0.00;0.00;;;22.30;50.50;;;;;;5071917;28;20198;-50
2023/12/15 02:44:05;;;;;;;0.00;0.00;;;22.30;50.40;;;;;;5072488;28;20215;-52
2023/12/15 02:46:40;;;;;;;0.00;0.00;;;22.40;50.50;;;;;;5073113;28;20190;-53
2023/12/15 02:49:11;;;;;;;0.00;0.00;;;22.40;50.50;;;;;;5071273;28;20197;-47
2023/12/15 02:51:41;;;;;;;0.00;0.00;;;22.40;50.50;;;;;;5090343;22;20221;-53
2023/12/15 02:54:14;;;;;;;0.00;0.00;;;22.50;50.50;;;;;;5091425;28;20213;-54
2023/12/15 02:56:45;;;;;;;0.00;0.00;;;22.50;50.50;;;;;;5092429;28;20190;-51
2023/12/15 02:59:15;;;;;;;0.10;0.10;;;22.50;50.50;;;;;;5091905;28;20194;-51
2023/12/15 03:01:46;;;;;;;0.00;0.00;;;22.50;50.50;;;;;;5090312;28;20660;-50
2023/12/15 03:04:17;;;;;;;0.00;0.00;;;22.60;50.50;;;;;;5092688;28;20218;-51
2023/12/15 03:06:47;;;;;;;0.00;0.00;;;22.60;50.50;;;;;;5091408;28;20217;-50
2023/12/15 03:09:20;;;;;;;0.00;0.00;;;22.60;50.50;;;;;;5090986;28;20190;-51
2023/12/15 03:11:51;;;;;;;0.00;0.00;;;22.60;50.50;;;;;;5091972;28;20201;-46
2023/12/15 03:14:22;;;;;;;0.08;0.08;;;22.70;50.50;;;;;;5091457;28;20218;-45
2023/12/15 03:16:52;;;;;;;0.00;0.00;;;22.70;50.50;;;;;;5090943;28;20190;-44
2023/12/15 03:19:23;;;;;;;0.00;0.00;;;22.70;50.50;;;;;;5092131;28;20205;-45
2023/12/15 03:21:54;;;;;;;0.00;0.00;;;22.80;50.60;;;;;;5091765;28;20212;-48
2023/12/15 03:24:26;;;;;;;0.00;0.00;;;22.80;50.60;;;;;;5091923;28;20693;-46
2023/12/15 03:26:57;;;;;;;0.00;0.00;;;22.80;50.60;;;;;;5090852;28;20704;-45
2023/12/15 03:29:28;;;;;;;0.00;0.00;;;22.90;50.60;;;;;;5091099;28;20208;-46
2023/12/15 03:31:58;;;;;;;0.00;0.00;;;22.90;50.50;;;;;;5091686;28;20650;-46
2023/12/15 03:34:29;;;;;;;0.00;0.00;;;22.90;50.50;;;;;;5091807;28;20304;-45
2023/12/15 03:37:00;;;;;;;0.00;0.00;;;23.00;50.60;;;;;;5091764;28;20654;-45
2023/12/15 03:39:32;;;;;;;0.00;0.00;;;23.00;50.60;;;;;;5090943;28;20194;-45
2023/12/15 03:42:06;;;;;;;0.00;0.00;;;23.00;50.60;;;;;;5091481;28;20198;-48
2023/12/15 03:44:39;;;;;;;0.00;0.00;;;23.10;50.70;;;;;;5090911;28;20282;-47
2023/12/15 03:47:10;;;;;;;0.00;0.00;;;23.10;50.70;;;;;;5091555;28;20281;-47
2023/12/15 03:49:40;;;;;;;0.00;0.00;;;23.10;51.20;;;;;;5089652;28;20654;-47
2023/12/15 03:52:11;;;;;;;0.00;0.00;;;23.20;50.60;;;;;;5091883;28;20202;-46
2023/12/15 03:54:44;;;;;;;0.00;0.00;;;23.20;50.60;;;;;;5091673;28;20198;-45
2023/12/15 03:57:14;;;;;;;0.00;0.00;;;23.30;50.60;;;;;;5090611;28;20437;-45
2023/12/15 03:59:45;;;;;;;0.00;0.00;;;23.30;50.60;;;;;;5091332;28;20197;-45
2023/12/15 04:02:16;;;;;;;0.10;0.10;;;23.40;50.60;;;;;;5090280;28;20197;-48
2023/12/15 04:04:48;;;;;;;0.00;0.00;;;23.50;50.60;;;;;;5091264;28;20194;-46
2023/12/15 04:07:19;;;;;;;0.00;0.00;;;23.50;50.50;;;;;;5090123;28;20190;-48
2023/12/15 04:09:51;;;;;;;0.00;0.00;;;23.50;50.40;;;;;;5091208;28;20243;-48
2023/12/15 04:12:22;;;;;;;0.00;0.00;;;23.50;50.40;;;;;;5090619;28;20592;-47
2023/12/15 04:14:53;;;;;;;0.00;0.00;;;23.60;50.40;;;;;;5090766;28;20186;-48
2023/12/15 04:17:23;;;;;;;0.00;0.00;;;23.70;50.50;;;;;;5090700;28;20197;-51
2023/12/15 04:19:54;;;;;;;0.00;0.00;;;23.70;50.40;;;;;;5090841;28;20194;-46
2023/12/15 04:22:25;;;;;;;0.00;0.00;;;23.80;50.30;;;;;;5090873;28;20217;-46
2023/12/15 04:24:57;;;;;;;0.00;0.00;;;23.80;50.30;;;;;;5090995;28;20194;-46
2023/12/15 04:27:28;;;;;;;0.00;0.00;;;23.90;50.30;;;;;;5090281;28;20291;-47
2023/12/15 04:29:59;;;;;;;0.00;0.00;;;23.90;50.20;;;;;;5090708;28;20583;-50
2023/12/15 04:32:29;;;;;;;0.00;0.00;;;24.00;50.20;;;;;;5091108;28;20186;-47
2023/12/15 04:35:00;;;;;;;0.00;0.00;;;24.00;50.20;;;;;;5089814;28;20276;-48
2023/12/15 04:37:31;;;;;;;0.00;0.00;;;24.10;50.80;;;;;;5086724;28;20771;-46
2023/12/15 04:40:03;;;;;;;0.00;0.00;;;24.10;50.20;;;;;;5090425;28;20198;-49
2023/12/15 04:42:34;;;;;;;0.00;0.00;;;24.20;50.20;;;;;;5090523;28;20214;-51
2023/12/15 04:45:07;;;;;;;0.00;0.00;;;24.20;50.20;;;;;;5090595;28;20593;-49
2023/12/15 04:47:38;;;;;;;0.10;0.10;;;24.20;49.80;;;;;;5089543;28;20281;-56
2023/12/15 04:50:10;;;;;;;0.00;0.00;;;24.30;49.80;;;;;;5090297;28;20222;-48
2023/12/15 04:52:40;;;;;;;0.00;0.00;;;24.30;49.70;;;;;;5090053;28;20222;-48
2023/12/15 04:55:13;;;;;;;0.00;0.00;;;24.40;49.60;;;;;;5090883;28;20245;-51
2023/12/15 04:57:44;;;;;;;0.00;0.00;;;24.40;49.60;;;;;;5090488;28;20225;-45
2023/12/15 05:00:15;;;;;;;0.00;0.00;;;24.50;49.50;;;;;;5090691;28;20201;-45
2023/12/15 05:02:47;;;;;;;0.00;0.00;;;24.50;50.10;;;;;;5088176;28;20297;-47
2023/12/15 05:05:18;;;;;;;0.00;0.00;;;24.60;50.10;;;;;;5091019;28;20198;-49
2023/12/15 05:07:49;;;;;;;0.00;0.00;;;24.60;49.40;;;;;;5091189;28;20193;-45
2023/12/15 05:10:22;;;;;;;0.00;0.00;;;24.60;49.40;;;;;;5089767;28;20222;-45
2023/12/15 05:12:52;;;;;;;0.00;0.00;;;24.70;49.30;;;;;;5090082;28;20217;-46
2023/12/15 05:15:23;;;;;;;0.00;0.00;;;24.70;49.30;;;;;;5089929;28;20191;-46
2023/12/15 05:17:54;;;;;;;0.00;0.00;;;24.70;49.30;;;;;;5090649;28;20601;-47
2023/12/15 05:20:25;;;;;;;0.00;0.00;;;24.80;49.20;;;;;;5089790;28;20198;-52
2023/12/15 05:22:55;;;;;;;0.00;0.00;;;24.80;49.30;;;;;;5090829;28;20210;-47
2023/12/15 05:25:28;;;;;;;0.00;0.00;;;24.90;49.30;;;;;;5092426;28;20201;-49
2023/12/15 05:27:58;;;;;;;0.00;0.00;;;24.90;49.20;;;;;;5093341;28;20194;-49
2023/12/15 05:30:29;;;;;;;0.00;0.00;;;24.90;49.20;;;;;;5094072;28;20218;-45
2023/12/15 05:33:00;;;;;;;0.00;0.00;;;25.00;49.20;;;;;;5093122;28;20216;-46
2023/12/15 05:35:31;;;;;;;0.00;0.00;;;25.00;49.20;;;;;;5093420;28;20763;-50
2023/12/15 05:38:02;;;;;;;0.00;0.00;;;25.10;49.20;;;;;;5092904;28;20194;-47
2023/12/15 05:40:34;;;;;;;0.00;0.00;;;25.10;49.10;;;;;;5092626;28;20198;-45
2023/12/15 05:43:05;;;;;;;0.00;0.00;;;25.10;49.00;;;;;;5092521;28;20214;-50
2023/12/15 05:45:39;;;;;;;0.00;0.00;;;25.20;49.00;;;;;;5094285;28;20190;-52
2023/12/15 05:48:10;;;;;;;0.00;0.00;;;25.20;49.00;;;;;;5093619;28;20205;-46
2023/12/15 05:50:41;;;;;;;0.00;0.00;;;25.20;48.90;;;;;;5093823;28;20218;-48
2023/12/15 05:53:11;;;;;;;0.10;0.10;;;25.30;48.90;;;;;;5093552;28;20459;-47
2023/12/15 05:55:44;;;;;;;0.00;0.00;;;25.30;48.90;;;;;;5093513;28;20562;-50
2023/12/15 05:58:14;;;;;;;0.00;0.00;;;25.30;48.90;;;;;;5092781;28;20674;-48
2023/12/15 06:00:45;;;;;;;0.00;0.00;;;25.40;48.90;;;;;;5093428;28;20206;-47
2023/12/15 06:03:17;;;;;;;0.00;0.00;;;25.40;48.80;;;;;;5093263;28;20218;-49
2023/12/15 06:05:47;;;;;;;0.00;0.00;;;25.40;48.80;;;;;;5093867;28;20229;-49
2023/12/15 06:08:18;;;;;;;0.00;0.00;;;25.50;48.80;;;;;;5093644;28;20716;-46
2023/12/15 06:10:51;;;;;;;0.00;0.00;;;25.50;48.80;;;;;;5093096;28;20218;-48
2023/12/15 06:13:21;;;;;;;0.00;0.00;;;25.50;48.70;;;;;;5072507;28;20217;-48
2023/12/15 06:15:52;;;;;;;0.00;0.00;;;25.60;48.70;;;;;;5072933;28;20312;-51
2023/12/15 06:18:23;;;;;;;0.00;0.00;;;25.60;48.80;;;;;;5073056;28;20198;-50
2023/12/15 06:20:54;;;;;;;0.00;0.00;;;25.60;48.80;;;;;;5073094;28;20569;-53
2023/12/15 06:23:24;;;;;;;0.00;0.00;;;25.60;48.70;;;;;;5072881;28;20223;-51
2023/12/15 06:25:57;;;;;;;0.00;0.00;;;25.70;48.70;;;;;;5073416;28;20202;-54
2023/12/15 06:28:27;;;;;;;0.00;0.00;;;25.70;48.60;;;;;;5073105;28;20198;-50
2023/12/15 06:30:58;;;;;;;0.00;0.00;;;25.70;48.60;;;;;;5076073;28;20717;-49
2023/12/15 06:33:29;;;;;;;0.00;0.00;;;25.80;48.50;;;;;;5073123;28;20385;-46
2023/12/15 06:35:59;;;;;;;0.00;0.00;;;25.80;48.50;;;;;;5073111;28;20203;-46
2023/12/15 06:38:30;;;;;;;0.00;0.00;;;25.80;48.50;;;;;;5073245;28;20202;-48
2023/12/15 06:41:03;;;;;;;0.00;0.00;;;25.80;48.50;;;;;;5073996;28;20206;-49
2023/12/15 06:43:33;;;;;;;0.00;0.00;;;25.90;48.50;;;;;;5092869;28;20214;-48
2023/12/15 06:46:04;;;;;;;0.00;0.00;;;25.90;48.50;;;;;;5093154;28;20281;-50
2023/12/15 06:48:35;;;;;;;0.00;0.00;;;25.90;48.40;;;;;;5092904;28;20190;-47
2023/12/15 06:51:09;;;;;;;0.00;0.00;;;25.90;48.50;;;;;;5092937;28;20222;-49
2023/12/15 06:53:40;;;;;;;0.00;0.00;;;25.90;48.40;;;;;;5092910;28;20716;-49
2023/12/15 06:56:13;;;;;;;0.00;0.00;;;25.90;48.40;;;;;;5093152;28;20191;-49
2023/12/15 06:58:44;;;;;;;0.00;0.00;;;25.90;48.40;;;;;;5091531;28;20197;-46
2023/12/15 07:01:15;;;;;;;0.00;0.00;;;25.90;48.40;;;;;;5092260;28;20194;-49
2023/12/15 07:03:47;;;;;;;0.00;0.00;;;25.90;48.30;;;;;;5092610;28;20210;-48
2023/12/15 07:06:18;;;;;;;0.00;0.00;;;25.90;48.30;;;;;;5092794;28;20190;-48
2023/12/15 07:08:53;;;;;;;0.00;0.00;;;25.90;48.30;;;;;;5092594;28;20226;-51
2023/12/15 07:11:26;;;;;;;0.00;0.00;;;25.90;48.30;;;;;;5092489;28;20225;-49
2023/12/15 07:13:57;;;;;;;0.00;0.00;;;25.90;48.20;;;;;;5092408;28;20303;-49
2023/12/15 07:16:28;;;;;;;0.00;0.00;;;25.90;48.20;;;;;;5092103;28;20198;-46
2023/12/15 07:18:59;;;;;;;0.00;0.00;;;25.90;48.20;;;;;;5091652;28;20186;-46
2023/12/15 07:21:29;;;;;;;0.00;0.00;;;25.90;48.20;;;;;;5091386;28;20194;-45
2023/12/15 07:24:00;;;;;;;0.00;0.00;;;25.90;48.20;;;;;;5091868;28;20214;-51
2023/12/15 07:26:32;;;;;;;0.00;0.00;;;25.90;48.10;;;;;;5092151;28;20197;-47
2023/12/15 07:29:03;;;;;;;0.00;0.00;;;25.90;48.00;;;;;;5092050;28;20202;-50
2023/12/15 07:31:34;;;;;;;0.00;0.00;;;25.90;48.10;;;;;;5092155;28;20685;-53
2023/12/15 07:34:05;;;;;;;0.00;0.00;;;25.90;48.10;;;;;;5091846;28;20217;-51
2023/12/15 07:36:35;;;;;;;0.00;0.00;;;25.90;48.10;;;;;;5091829;28;20194;-49
2023/12/15 07:39:07;;;;;;;0.00;0.00;;;25.90;48.00;;;;;;5092088;28;20568;-56
2023/12/15 07:41:41;;;;;;;0.00;0.00;;;25.90;47.90;;;;;;5091961;28;20206;-54
2023/12/15 07:44:13;;;;;;;0.00;0.00;;;25.90;47.80;;;;;;5091820;28;20213;-56
2023/12/15 07:46:43;;;;;;;0.00;0.00;;;25.90;47.70;;;;;;5091958;28;20562;-53
2023/12/15 07:49:14;;;;;;;0.00;0.00;;;25.90;47.60;;;;;;5091795;28;20304;-55
2023/12/15 07:51:45;;;;;;;0.00;0.00;;;25.90;47.60;;;;;;5091738;28;20758;-56
2023/12/15 07:54:16;;;;;;;0.00;0.00;;;25.90;47.60;;;;;;5091569;28;20698;-54
2023/12/15 07:56:48;;;;;;;0.00;0.00;;;25.80;47.50;;;;;;5091285;28;20664;-54
2023/12/15 07:59:19;;;;;;;0.00;0.00;;;25.80;47.60;;;;;;5090985;28;20213;-52
2023/12/15 08:01:55;;;;;;;0.00;0.00;;;25.80;47.60;;;;;;5091621;28;20201;-52
2023/12/15 08:04:25;;;;;;;0.00;0.00;;;25.80;47.70;;;;;;5091496;28;20297;-49
2023/12/15 08:06:56;;;;;;;0.00;0.00;;;25.80;47.60;;;;;;5091202;28;20198;-50
2023/12/15 08:09:27;;;;;;;0.00;0.00;;;25.80;47.60;;;;;;5082164;28;20191;-50
2023/12/15 08:12:00;;;;;;;0.00;0.00;;;25.80;47.70;;;;;;5080341;28;20283;-46
2023/12/15 08:14:31;;;;;;;0.00;0.00;;;25.80;47.70;;;;;;5091301;28;20222;-49
2023/12/15 08:17:01;;;;;;;0.00;0.00;;;25.80;47.70;;;;;;5091451;28;20660;-47
2023/12/15 08:19:32;;;;;;;0.00;0.00;;;25.80;47.60;;;;;;5091542;28;20194;-49
2023/12/15 08:22:03;;;;;;;0.00;0.00;;;25.80;47.50;;;;;;5091358;28;20205;-49
2023/12/15 08:24:33;;;;;;;0.00;0.00;;;25.80;47.40;;;;;;5090918;28;20210;-50
2023/12/15 08:27:06;;;;;;;0.00;0.00;;;25.70;47.30;;;;;;5088920;28;20194;-49
2023/12/15 08:29:37;;;;;;;0.00;0.00;;;25.70;47.20;;;;;;5090783;28;20591;-52
2023/12/15 08:32:08;;;;;;;0.00;0.00;;;25.70;47.10;;;;;;5091039;28;20240;-48
2023/12/15 08:34:40;;;;;;;0.00;0.00;;;25.70;47.10;;;;;;5091035;28;20190;-51
2023/12/15 08:37:11;;;;;;;0.00;0.00;;;25.70;47.10;;;;;;5090685;28;20198;-50
2023/12/15 08:39:42;;;;;;;0.00;0.00;;;25.70;47.10;;;;;;5091166;28;20251;-49
2023/12/15 08:42:14;;;;;;;0.00;0.00;;;25.70;47.00;;;;;;5090912;28;20213;-50
2023/12/15 08:44:45;;;;;;;0.00;0.00;;;25.60;47.00;;;;;;5090886;28;20194;-45
2023/12/15 08:47:16;;;;;;;0.00;0.00;;;25.60;47.00;;;;;;5091162;28;20209;-48
2023/12/15 08:49:46;;;;;;;0.00;0.00;;;25.60;47.00;;;;;;5090308;28;20190;-45
2023/12/15 08:52:17;;;;;;;0.00;0.00;;;25.60;47.10;;;;;;5090018;28;20297;-44
2023/12/15 08:54:48;;;;;;;0.00;0.00;;;25.60;47.20;;;;;;5088344;28;20187;-45
2023/12/15 08:57:21;;;;;;;0.00;0.00;;;25.60;47.20;;;;;;5090895;28;20197;-44
2023/12/15 08:59:51;;;;;;;0.00;0.00;;;25.60;47.20;;;;;;5091697;28;20198;-44
2023/12/15 09:02:22;;;;;;;0.00;0.00;;;25.60;47.20;;;;;;5094237;28;20559;-48
2023/12/15 09:04:53;;;;;;;0.00;0.00;;;25.60;47.30;;;;;;5094266;28;20213;-46
2023/12/15 09:07:24;;;;;;;0.00;0.00;;;25.60;47.30;;;;;;5090068;28;20194;-48
2023/12/15 09:09:55;;;;;;;0.00;0.00;;;25.60;47.20;;;;;;5094569;28;20194;-54
2023/12/15 09:12:27;;;;;;;0.00;0.00;;;25.60;47.20;;;;;;5094044;28;20229;-53
2023/12/15 09:14:58;;;;;;;0.00;0.00;;;25.60;47.10;;;;;;5092805;28;20554;-46
2023/12/15 09:17:29;;;;;;;0.00;0.00;;;25.60;47.00;;;;;;5094831;28;20190;-45
2023/12/15 09:19:59;;;;;;;0.00;0.00;;;25.60;47.00;;;;;;5094051;28;20194;-54
2023/12/15 09:22:30;;;;;;;0.00;0.00;;;25.50;46.90;;;;;;5090495;28;20572;-51
2023/12/15 09:25:01;;;;;;;0.00;0.00;;;25.50;46.80;;;;;;5093216;28;20198;-47
2023/12/15 09:27:33;;;;;;;0.00;0.00;;;25.50;46.70;;;;;;5093541;28;20221;-54
2023/12/15 09:30:04;;;;;;;0.00;0.00;;;25.50;46.70;;;;;;5093092;28;20194;-49
2023/12/15 09:32:35;;;;;;;0.00;0.00;;;25.50;46.60;;;;;;5092986;28;20668;-50
2023/12/15 09:35:06;;;;;;;0.00;0.00;;;25.40;46.60;;;;;;5093306;28;20718;-52
2023/12/15 09:37:36;;;;;;;0.00;0.00;;;25.40;46.60;;;;;;5092879;28;20190;-50
2023/12/15 09:40:08;;;;;;;0.00;0.00;;;25.40;46.60;;;;;;5091588;28;20198;-45
2023/12/15 09:42:40;;;;;;;0.00;0.00;;;25.40;46.50;;;;;;5092431;28;20613;-49
2023/12/15 09:45:11;;;;;;;0.00;0.00;;;25.40;46.60;;;;;;5093466;28;20705;-47
2023/12/15 09:47:47;;;;;;;0.00;0.00;;;25.40;46.50;;;;;;5093032;28;20232;-50
2023/12/15 09:50:20;;;;;;;0.00;0.00;;;25.40;46.50;;;;;;5093422;28;20633;-46
2023/12/15 09:52:51;;;;;;;0.00;0.00;;;25.40;46.40;;;;;;5093522;28;20700;-54
2023/12/15 09:55:22;;;;;;;0.00;0.00;;;25.40;46.30;;;;;;5093059;28;20202;-50
2023/12/15 09:57:55;;;;;;;0.00;0.00;;;25.30;46.20;;;;;;5092983;28;20190;-48
2023/12/15 10:00:26;;;;;;;0.00;0.00;;;25.30;46.20;;;;;;5093207;28;20183;-50
2023/12/15 10:02:57;;;;;;;0.00;0.00;;;25.30;46.10;;;;;;5093700;28;20243;-48
2023/12/15 10:05:28;;;;;;;0.00;0.00;;;25.30;46.10;;;;;;5091805;28;20202;-51
2023/12/15 10:07:59;;;;;;;0.00;0.00;;;25.30;46.00;;;;;;5093610;28;20198;-47
2023/12/15 10:10:30;;;;;;;0.00;0.00;;;25.30;46.00;;;;;;5091604;28;20190;-46
2023/12/15 10:13:03;;;;;;;0.00;0.00;;;25.30;46.00;;;;;;5092736;28;20230;-53
2023/12/15 10:15:33;;;;;;;0.00;0.00;;;25.20;45.90;;;;;;5092997;28;20688;-50
2023/12/15 10:18:05;;;;;;;0.00;0.00;;;25.20;45.90;;;;;;5092813;28;20602;-47
2023/12/15 10:20:36;;;;;;;0.00;0.00;;;25.20;46.50;;;;;;5092561;28;20688;-55
2023/12/15 10:23:08;;;;;;;0.00;0.00;;;25.20;45.90;;;;;;5092148;28;20283;-48
2023/12/15 10:25:39;;;;;;;0.00;0.00;;;25.10;45.90;;;;;;5091495;28;20194;-51
2023/12/15 10:28:11;;;;;;;0.00;0.00;;;25.20;46.10;;;;;;5092284;28;20198;-46
2023/12/15 10:30:42;;;;;;;0.00;0.00;;;25.10;46.00;;;;;;5092392;28;20209;-50
2023/12/15 10:33:13;;;;;;;0.00;0.00;;;25.10;46.00;;;;;;5092263;28;20230;-50
2023/12/15 10:35:44;;;;;;;0.00;0.00;;;25.10;46.00;;;;;;5091657;28;20202;-53
2023/12/15 10:38:15;;;;;;;0.00;0.00;;;25.10;46.00;;;;;;5092093;28;20281;-51
2023/12/15 10:40:46;;;;;;;0.00;0.00;;;25.10;46.00;;;;;;5091862;28;20673;-46
2023/12/15 10:43:21;;;;;;;0.00;0.00;;;25.10;46.00;;;;;;5092660;28;20225;-48
2023/12/15 10:45:52;;;;;;;0.00;0.00;;;25.10;46.00;;;;;;5092301;28;20193;-46
2023/12/15 10:48:24;;;;;;;0.00;0.00;;;25.10;46.00;;;;;;5092300;28;20198;-46
2023/12/15 10:50:56;;;;;;;0.00;0.00;;;25.10;45.90;;;;;;5092143;28;20197;-50
2023/12/15 10:53:29;;;;;;;0.00;0.00;;;25.10;45.80;;;;;;5091883;28;20237;-54
2023/12/15 10:56:00;;;;;;;0.00;0.00;;;25.10;45.80;;;;;;5091960;28;20191;-56
2023/12/15 10:58:32;;;;;;;0.00;0.00;;;25.10;45.80;;;;;;5092154;28;20209;-48
2023/12/15 11:01:09;;;;;;;0.00;0.00;;;25.00;45.80;;;;;;5091295;28;20580;-55
2023/12/15 11:03:41;;;;;;;0.00;0.00;;;25.00;45.70;;;;;;5092454;28;20248;-54
2023/12/15 11:06:12;;;;;;;0.00;0.00;;;25.00;45.80;;;;;;5091742;28;20251;-46
2023/12/15 11:08:44;;;;;;;0.00;0.00;;;25.00;45.90;;;;;;5092261;28;20266;-53
2023/12/15 11:11:24;;;;;;;0.00;0.00;;;25.00;45.90;;;;;;5091849;28;20205;-48
2023/12/15 11:14:01;;;;;;;0.00;0.00;;;24.90;45.90;;;;;;5091576;28;20225;-50
2023/12/15 11:16:34;;;;;;;0.00;0.00;;;24.90;46.00;;;;;;5092595;28;20638;-48
2023/12/15 11:19:05;;;;;;;0.00;0.00;;;24.90;46.00;;;;;;5091556;28;20198;-47
2023/12/15 11:21:35;;;;;;;0.00;0.00;;;24.90;46.00;;;;;;5092218;28;20187;-49
2023/12/15 11:24:10;;;;;;;0.00;0.00;;;24.90;46.10;;;;;;5090477;28;20698;-46
2023/12/15 11:26:46;;;;;;;0.00;0.00;;;24.90;46.10;;;;;;5091482;28;20672;-51
2023/12/15 11:29:20;;;;;;;0.03;0.03;;;24.90;46.10;;;;;;5090990;28;20190;-50
2023/12/15 11:31:54;;;;;;;0.00;0.00;;;24.90;46.20;;;;;;5091824;28;20190;-48
2023/12/15 11:34:42;;;;;;;0.00;0.00;;;24.90;46.20;;;;;;5091553;28;20239;-50
2023/12/15 11:37:14;;;;;;;0.00;0.00;;;24.90;46.20;;;;;;5091574;28;20190;-46
2023/12/15 11:39:46;;;;;;;0.00;0.00;;;24.90;46.10;;;;;;5091583;28;20190;-46
2023/12/15 11:42:17;;;;;;;0.00;0.00;;;24.90;46.10;;;;;;5091590;28;20198;-47
2023/12/15 11:44:50;;;;;;;0.00;0.00;;;24.90;46.10;;;;;;5091107;28;20195;-48
2023/12/15 11:47:21;;;;;;;0.00;0.00;;;24.90;46.10;;;;;;5091093;28;20198;-49
2023/12/15 11:49:52;;;;;;;0.00;0.00;;;24.90;46.20;;;;;;5090754;28;20267;-50
2023/12/15 11:52:23;;;;;;;0.00;0.00;;;24.90;46.20;;;;;;5091008;28;20586;-52
2023/12/15 11:54:54;;;;;;;0.00;0.00;;;24.90;46.20;;;;;;5091120;28;20626;-48
2023/12/15 11:57:27;;;;;;;0.00;0.00;;;24.90;46.20;;;;;;5091188;28;20194;-47
2023/12/15 12:00:00;;;;;;;0.00;0.00;;;24.80;46.10;;;;;;5091623;28;20190;-48
2023/12/15 12:02:32;;;;;;;0.00;0.00;;;24.80;46.10;;;;;;5091612;28;20205;-46
2023/12/15 12:05:03;;;;;;;0.00;0.00;;;24.80;46.20;;;;;;5092114;28;20208;-47
2023/12/15 12:07:34;;;;;;;0.00;0.00;;;24.80;46.20;;;;;;5091407;28;20202;-47
2023/12/15 12:10:07;;;;;;;0.03;0.03;;;24.80;46.30;;;;;;5091355;28;20243;-46
2023/12/15 12:12:38;;;;;;;0.00;0.00;;;24.80;46.30;;;;;;5091203;28;20214;-47
2023/12/15 12:15:15;;;;;;;0.00;0.00;;;24.80;46.30;;;;;;5091110;28;20217;-46
2023/12/15 12:17:45;;;;;;;0.00;0.00;;;24.80;46.30;;;;;;5088584;28;20543;-49
2023/12/15 12:20:16;;;;;;;0.00;0.00;;;24.80;46.40;;;;;;5091463;28;20201;-46
2023/12/15 12:22:48;;;;;;;0.00;0.00;;;24.80;46.40;;;;;;5091473;28;20237;-48
2023/12/15 12:25:19;;;;;;;0.00;0.00;;;24.80;46.40;;;;;;5091689;28;20221;-53
2023/12/15 12:27:49;;;;;;;0.00;0.00;;;24.80;46.40;;;;;;5091309;28;20213;-56
2023/12/15 12:30:22;;;;;;;0.00;0.00;;;24.70;46.40;;;;;;5091197;28;20205;-54
2023/12/15 12:32:53;;;;;;;0.00;0.00;;;24.80;46.40;;;;;;5090693;28;20222;-56
2023/12/15 12:35:24;;;;;;;0.00;0.00;;;24.70;46.40;;;;;;5095196;28;20707;-53
2023/12/15 12:37:54;;;;;;;0.00;0.00;;;24.80;46.50;;;;;;5094957;28;20567;-56
2023/12/15 12:40:25;;;;;;;0.00;0.00;;;24.70;46.40;;;;;;5095291;28;20201;-56
2023/12/15 12:42:58;;;;;;;0.00;0.00;;;24.70;46.50;;;;;;5095280;28;20245;-56
2023/12/15 12:45:31;;;;;;;0.00;0.00;;;24.70;46.50;;;;;;5095308;28;20684;-52
2023/12/15 12:48:01;;;;;;;0.00;0.00;;;24.70;46.50;;;;;;5095846;28;20194;-56
2023/12/15 12:50:32;;;;;;;0.00;0.00;;;24.70;46.50;;;;;;5095428;28;20715;-50
2023/12/15 12:53:03;;;;;;;0.00;0.00;;;24.70;46.60;;;;;;5095634;28;20229;-52
2023/12/15 12:55:37;;;;;;;0.00;0.00;;;24.70;46.60;;;;;;5095792;28;20228;-50
2023/12/15 12:58:07;;;;;;;0.00;0.00;;;24.70;46.60;;;;;;5095104;28;20258;-51
2023/12/15 13:00:40;;;;;;;0.00;0.00;;;24.70;46.70;;;;;;5094845;28;20205;-52
2023/12/15 13:03:10;;;;;;;0.00;0.00;;;24.70;46.70;;;;;;5095046;28;20296;-48
2023/12/15 13:05:41;;;;;;;0.00;0.00;;;24.70;46.70;;;;;;5094709;28;20650;-50
2023/12/15 13:08:12;;;;;;;0.00;0.00;;;24.70;46.70;;;;;;5094201;28;20665;-49